Time;durP1;ratioP1;P1;durP2;ratioP2;P2;SDS_P1;SDS_P2;PMS_P1;PMS_P2;Temp;Humidity;BMP_temperature;BMP_pressure;BME280_temperature;BME280_humidity;BME280_pressure;Samples;Min_cycle;Max_cycle;Signal;HPM_P1;HPM_P2
2022/09/02 00:00:59;;;;;;;;;;;;;;;15.63;58.81;101972.88;4935116;28;119709;-77
2022/09/02 00:03:30;;;;;;;;;;;;;;;15.64;58.73;101977.19;4918444;28;120354;-78
2022/09/02 00:05:59;;;;;;;;;;;;;;;15.64;58.58;101963.38;4933996;28;119320;-77
2022/09/02 00:08:25;;;;;;;;;;;;;;;15.65;58.28;101964.13;4935637;28;119618;-77
2022/09/02 00:10:51;;;;;;;;;;;;;;;15.63;58.49;101966.59;4918276;28;119816;-78
2022/09/02 00:13:18;;;;;;;;;;;;;;;15.60;58.57;101968.25;4919753;28;121150;-78
2022/09/02 00:15:44;;;;;;;;;;;;;;;15.57;58.00;101955.28;4935431;28;119297;-77
2022/09/02 00:18:11;;;;;;;;;;;;;;;15.56;58.18;101969.56;4935230;28;119340;-78
2022/09/02 00:20:38;;;;;;;;;;;;;;;15.54;58.39;101964.50;4937307;28;120024;-78
2022/09/02 00:23:04;;;;;;;;;;;;;;;15.54;58.67;101966.50;4935495;28;119748;-78
2022/09/02 00:25:30;;;;;;;;;;;;;;;15.53;58.80;101960.19;4935149;28;120402;-77
2022/09/02 00:27:56;;;;;;;;;;;;;;;15.54;58.54;101964.50;4933505;28;120626;-78
2022/09/02 00:30:25;;;;;;;;;;;;;;;15.53;58.78;101962.97;4934353;28;119659;-78
2022/09/02 00:32:50;;;;;;;;;;;;;;;15.53;58.86;101954.66;4932969;28;119327;-78
2022/09/02 00:35:16;;;;;;;;;;;;;;;15.51;58.71;101948.06;4917784;28;119327;-78
2022/09/02 00:37:43;;;;;;;;;;;;;;;15.49;58.79;101950.50;4933434;28;120007;-78
2022/09/02 00:40:10;;;;;;;;;;;;;;;15.47;58.78;101947.41;4934202;28;119177;-79
2022/09/02 00:42:36;;;;;;;;;;;;;;;15.46;59.03;101949.41;4937471;28;119715;-77
2022/09/02 00:45:03;;;;;;;;;;;;;;;15.44;58.75;101946.34;4932783;28;119909;-77
2022/09/02 00:47:30;;;;;;;;;;;;;;;15.44;59.10;101949.09;4933130;28;119439;-77
2022/09/02 00:49:57;;;;;;;;;;;;;;;15.44;59.07;101951.09;4933622;28;119928;-77
2022/09/02 00:52:34;;;;;;;;;;;;;;;15.43;58.68;101947.56;4933767;28;119546;-78
2022/09/02 00:55:17;;;;;;;;;;;;;;;15.39;59.06;101951.69;4933131;28;119280;-78
2022/09/02 00:57:46;;;;;;;;;;;;;;;15.38;59.00;101947.34;4932627;28;119883;-77
2022/09/02 01:00:18;;;;;;;;;;;;;;;15.36;59.24;101940.28;4933571;28;120379;-77
2022/09/02 01:02:46;;;;;;;;;;;;;;;15.36;59.13;101937.53;4916813;28;120025;-78
2022/09/02 01:05:14;;;;;;;;;;;;;;;15.36;59.28;101940.28;4936558;28;119709;-78
2022/09/02 01:07:40;;;;;;;;;;;;;;;15.36;59.04;101940.28;4932790;28;119314;-78
2022/09/02 01:10:09;;;;;;;;;;;;;;;15.36;59.40;101936.75;4933258;28;119324;-78
2022/09/02 01:12:34;;;;;;;;;;;;;;;15.35;59.07;101941.50;4932640;28;120112;-77
2022/09/02 01:15:01;;;;;;;;;;;;;;;15.34;59.08;101931.69;4934909;28;119637;-77
2022/09/02 01:17:28;;;;;;;;;;;;;;;15.33;59.42;101926.59;4916530;28;119352;-76
2022/09/02 01:19:56;;;;;;;;;;;;;;;15.31;59.29;101932.59;4932692;28;119731;-78
2022/09/02 01:22:27;;;;;;;;;;;;;;;15.21;59.45;101910.91;4934220;28;119372;-78
2022/09/02 01:24:58;;;;;;;;;;;;;;;15.29;59.33;101921.22;4936530;28;120321;-78
2022/09/02 01:27:24;;;;;;;;;;;;;;;15.26;59.44;101922.13;4899908;28;119691;-76
2022/09/02 01:29:51;;;;;;;;;;;;;;;15.25;59.52;101928.88;4935017;28;119352;-79
2022/09/02 01:32:17;;;;;;;;;;;;;;;15.24;59.43;101926.56;4933143;28;119248;-78
2022/09/02 01:34:42;;;;;;;;;;;;;;;15.21;59.40;101931.00;4901197;28;120012;-78
2022/09/02 01:37:08;;;;;;;;;;;;;;;15.21;59.79;101931.00;4917083;28;120781;-78
2022/09/02 01:39:34;;;;;;;;;;;;;;;15.21;59.84;101921.94;4933624;28;121172;-78
2022/09/02 01:42:00;;;;;;;;;;;;;;;15.21;60.02;101928.25;4934132;28;119629;-76
2022/09/02 01:44:26;;;;;;;;;;;;;;;15.20;60.06;101932.22;4931475;28;119722;-77
2022/09/02 01:46:52;;;;;;;;;;;;;;;15.20;59.79;101929.47;4934523;28;119292;-77
2022/09/02 01:49:18;;;;;;;;;;;;;;;15.20;59.52;101929.47;4930444;28;119780;-77
2022/09/02 01:51:44;;;;;;;;;;;;;;;15.17;59.26;101924.84;4929578;28;119412;-76
2022/09/02 01:54:10;;;;;;;;;;;;;;;15.15;59.24;101924.53;4929677;28;119630;-77
2022/09/02 01:56:36;;;;;;;;;;;;;;;15.14;59.34;101930.47;4931367;28;121335;-76
2022/09/02 01:59:01;;;;;;;;;;;;;;;15.12;59.46;101928.19;4913553;28;120812;-76
2022/09/02 02:01:27;;;;;;;;;;;;;;;15.09;59.55;101926.31;4930560;28;119329;-76
2022/09/02 02:03:53;;;;;;;;;;;;;;;15.08;59.85;101921.25;4931827;28;119283;-76
2022/09/02 02:06:21;;;;;;;;;;;;;;;15.07;60.13;101920.47;4929701;28;119932;-76
2022/09/02 02:08:48;;;;;;;;;;;;;;;15.07;59.85;101922.47;4934504;28;119382;-77
2022/09/02 02:11:18;;;;;;;;;;;;;;;15.07;59.85;101914.94;4930028;28;119930;-76
2022/09/02 02:13:48;;;;;;;;;;;;;;;15.08;60.23;101912.94;4930256;28;119698;-76
2022/09/02 02:16:14;;;;;;;;;;;;;;;15.07;60.00;101912.19;4929866;28;119510;-76
2022/09/02 02:18:40;;;;;;;;;;;;;;;15.08;59.89;101910.97;4930607;28;119487;-77
2022/09/02 02:21:05;;;;;;;;;;;;;;;15.07;60.08;101914.94;4929938;28;120055;-76
2022/09/02 02:23:31;;;;;;;;;;;;;;;15.07;59.64;101909.41;4931527;28;119563;-76
2022/09/02 02:25:58;;;;;;;;;;;;;;;15.06;60.18;101916.16;4929659;28;119343;-77
2022/09/02 02:28:24;;;;;;;;;;;;;;;15.03;60.22;101912.31;4931043;28;119530;-77
2022/09/02 02:30:50;;;;;;;;;;;;;;;15.03;59.59;101914.31;4934764;28;119769;-77
2022/09/02 02:33:16;;;;;;;;;;;;;;;15.03;60.03;101911.56;4932494;28;119562;-77
2022/09/02 02:35:45;;;;;;;;;;;;;;;15.01;59.99;101906.47;4915508;28;120289;-76
2022/09/02 02:38:10;;;;;;;;;;;;;;;15.00;59.94;101917.97;4930529;28;119502;-77
2022/09/02 02:40:36;;;;;;;;;;;;;;;14.97;60.18;101907.84;4930955;28;119477;-77
2022/09/02 02:43:02;;;;;;;;;;;;;;;14.98;60.35;101909.38;4915328;28;119553;-76
2022/09/02 02:45:28;;;;;;;;;;;;;;;14.96;60.24;101906.28;4930928;28;119535;-77
2022/09/02 02:47:55;;;;;;;;;;;;;;;14.96;60.40;101907.06;4930726;28;119686;-76
2022/09/02 02:50:22;;;;;;;;;;;;;;;14.94;60.04;101906.75;4930830;28;119425;-76
2022/09/02 02:52:49;;;;;;;;;;;;;;;14.93;59.89;101905.22;4934366;28;121173;-77
2022/09/02 02:55:16;;;;;;;;;;;;;;;14.91;59.98;101910.41;4930386;28;119660;-77
2022/09/02 02:58:05;;;;;;;;;;;;;;;14.89;60.20;101906.53;4897144;28;119511;-77
2022/09/02 03:00:32;;;;;;;;;;;;;;;14.87;59.77;101906.22;4931081;28;119433;-77
2022/09/02 03:02:59;;;;;;;;;;;;;;;14.84;59.60;101910.66;4914958;28;119682;-77
2022/09/02 03:05:26;;;;;;;;;;;;;;;14.83;59.82;101911.09;4930304;28;119412;-77
2022/09/02 03:07:51;;;;;;;;;;;;;;;14.79;60.03;101910.47;4931403;28;119660;-77
2022/09/02 03:10:18;;;;;;;;;;;;;;;14.74;59.70;101909.84;4915516;28;119192;-76
2022/09/02 03:12:46;;;;;;;;;;;;;;;14.69;60.14;101912.41;4931144;28;119371;-76
2022/09/02 03:15:14;;;;;;;;;;;;;;;14.65;59.80;101909.75;4936780;28;119289;-76
2022/09/02 03:17:40;;;;;;;;;;;;;;;14.63;60.21;101914.19;4914154;28;120725;-78
2022/09/02 03:20:06;;;;;;;;;;;;;;;14.61;60.55;101911.88;4909663;28;119830;-76
2022/09/02 03:22:37;;;;;;;;;;;;;;;14.60;60.46;101913.09;4922540;28;119461;-78
2022/09/02 03:25:05;;;;;;;;;;;;;;;14.60;60.73;101910.31;4926084;28;119964;-79
2022/09/02 03:27:33;;;;;;;;;;;;;;;14.59;60.28;101908.00;4915213;28;120038;-79
2022/09/02 03:30:26;;;;;;;;;;;;;;;14.58;60.42;101903.72;4916421;28;119542;-80
2022/09/02 03:32:53;;;;;;;;;;;;;;;14.57;60.80;101896.66;4904726;28;119626;-78
2022/09/02 03:35:20;;;;;;;;;;;;;;;14.56;60.97;101898.63;4930193;28;119641;-77
2022/09/02 03:37:46;;;;;;;;;;;;;;;14.53;60.60;101905.06;4912882;28;120875;-77
2022/09/02 03:40:14;;;;;;;;;;;;;;;14.52;60.41;101898.00;4921236;28;119913;-78
2022/09/02 03:42:40;;;;;;;;;;;;;;;14.47;60.48;101890.28;4929231;28;119704;-79
2022/09/02 03:45:07;;;;;;;;;;;;;;;14.44;60.40;101896.72;4924733;28;119805;-77
2022/09/02 03:47:34;;;;;;;;;;;;;;;14.42;60.32;101894.34;4918183;28;119698;-79
2022/09/02 03:50:03;;;;;;;;;;;;;;;14.40;60.54;101898.78;4905953;28;121806;-77
2022/09/02 03:52:29;;;;;;;;;;;;;;;14.37;60.93;101892.16;4905812;28;122077;-80
2022/09/02 03:54:55;;;;;;;;;;;;;;;14.36;61.05;101892.59;4928733;28;120460;-79
2022/09/02 03:57:34;;;;;;;;;;;;;;;14.35;60.86;101888.31;4910623;28;120717;-76
2022/09/02 04:00:00;;;;;;;;;;;;;;;14.34;60.94;101886.78;4890341;28;120910;-70
2022/09/02 04:02:26;;;;;;;;;;;;;;;14.32;60.93;101889.97;4909127;28;120068;-70
2022/09/02 04:04:51;;;;;;;;;;;;;;;14.31;60.81;101891.19;4908510;28;120699;-70
2022/09/02 04:07:17;;;;;;;;;;;;;;;14.30;60.92;101880.59;4912591;28;120210;-70
2022/09/02 04:09:42;;;;;;;;;;;;;;;14.30;60.84;101884.13;4909797;28;120636;-70
2022/09/02 04:12:08;;;;;;;;;;;;;;;14.28;60.96;101889.34;4896015;28;120806;-70
2022/09/02 04:14:33;;;;;;;;;;;;;;;14.26;60.58;101888.25;4909136;28;120233;-70
2022/09/02 04:16:59;;;;;;;;;;;;;;;14.24;60.71;101898.97;4909796;28;119513;-70
2022/09/02 04:19:25;;;;;;;;;;;;;;;14.23;60.88;101884.38;4912754;28;119990;-70
2022/09/02 04:21:50;;;;;;;;;;;;;;;14.22;61.20;101890.34;4908316;28;119362;-70
2022/09/02 04:24:16;;;;;;;;;;;;;;;14.21;61.10;101894.34;4908974;28;120214;-70
2022/09/02 04:26:45;;;;;;;;;;;;;;;14.18;60.70;101882.16;4910003;28;119970;-70
2022/09/02 04:29:14;;;;;;;;;;;;;;;14.17;60.65;101888.91;4927402;28;119915;-70
2022/09/02 04:31:41;;;;;;;;;;;;;;;14.16;60.70;101887.38;4907697;28;119762;-70
2022/09/02 04:34:06;;;;;;;;;;;;;;;14.16;61.03;101892.13;4909170;28;119442;-70
2022/09/02 04:36:32;;;;;;;;;;;;;;;14.14;60.95;101884.28;4904266;28;119825;-70
2022/09/02 04:39:02;;;;;;;;;;;;;;;14.12;61.08;101887.50;4924689;28;119996;-70
2022/09/02 04:41:31;;;;;;;;;;;;;;;14.11;61.38;101880.44;4912615;28;119585;-70
2022/09/02 04:44:01;;;;;;;;;;;;;;;14.12;61.28;101889.47;4907266;28;119697;-70
2022/09/02 04:46:30;;;;;;;;;;;;;;;14.11;61.10;101874.91;4909313;28;119736;-70
2022/09/02 04:48:56;;;;;;;;;;;;;;;14.12;61.31;101883.97;4909546;28;119439;-70
2022/09/02 04:51:23;;;;;;;;;;;;;;;14.12;61.47;101881.19;4890471;28;121818;-70
2022/09/02 04:53:52;;;;;;;;;;;;;;;14.12;60.91;101884.72;4906435;28;119713;-70
2022/09/02 04:56:20;;;;;;;;;;;;;;;14.14;61.21;101884.28;4904673;28;119486;-70
2022/09/02 04:58:49;;;;;;;;;;;;;;;14.15;61.38;101885.81;4899115;28;119866;-70
2022/09/02 05:01:19;;;;;;;;;;;;;;;14.17;61.43;101882.63;4884023;28;119781;-70
2022/09/02 05:03:46;;;;;;;;;;;;;;;14.20;61.41;101890.81;4912698;28;121269;-70
2022/09/02 05:06:17;;;;;;;;;;;;;;;14.22;61.37;101895.88;4917647;28;121197;-70
2022/09/02 05:08:43;;;;;;;;;;;;;;;14.24;61.49;101896.97;4914405;28;119322;-70
2022/09/02 05:11:12;;;;;;;;;;;;;;;14.26;61.31;101900.06;4909260;28;119672;-70
2022/09/02 05:13:38;;;;;;;;;;;;;;;14.29;61.17;101899.16;4908760;28;119572;-70
2022/09/02 05:16:08;;;;;;;;;;;;;;;14.33;60.97;101901.78;4908655;28;119620;-70
2022/09/02 05:18:33;;;;;;;;;;;;;;;14.37;60.86;101894.16;4881091;28;120299;-70
2022/09/02 05:21:03;;;;;;;;;;;;;;;14.41;61.03;101900.31;4908243;28;119663;-70
2022/09/02 05:23:29;;;;;;;;;;;;;;;14.45;60.98;101898.25;4910786;28;119656;-70
2022/09/02 05:25:54;;;;;;;;;;;;;;;14.49;60.84;101901.66;4925072;28;119659;-70
2022/09/02 05:28:21;;;;;;;;;;;;;;;14.53;61.18;101890.50;4923865;28;120096;-70
2022/09/02 05:30:46;;;;;;;;;;;;;;;14.59;61.37;101894.97;4908193;28;119695;-70
2022/09/02 05:33:14;;;;;;;;;;;;;;;14.64;61.03;101897.16;4907509;28;119707;-70
2022/09/02 05:35:42;;;;;;;;;;;;;;;14.70;61.41;101900.91;4908232;28;120010;-70
2022/09/02 05:38:08;;;;;;;;;;;;;;;14.77;61.11;101899.09;4906252;28;119913;-70
2022/09/02 05:40:38;;;;;;;;;;;;;;;14.83;61.52;101895.31;4908270;28;119472;-70
2022/09/02 05:43:06;;;;;;;;;;;;;;;14.90;61.46;101900.56;4892457;28;119552;-70
2022/09/02 05:45:33;;;;;;;;;;;;;;;14.99;61.92;101897.88;4909103;28;122003;-70
2022/09/02 05:49:04;;;;;;;;;;;;;;;15.08;61.84;101893.59;4908650;28;119881;-70
2022/09/02 05:50:47;;;;;;;;;;;;;;;15.16;62.03;101895.66;4927691;28;120722;-70
2022/09/02 05:53:13;;;;;;;;;;;;;;;15.26;62.13;101890.94;4905278;28;120321;-70
2022/09/02 05:55:38;;;;;;;;;;;;;;;15.35;62.67;101890.97;4907816;28;119785;-70
2022/09/02 05:58:04;;;;;;;;;;;;;;;15.45;62.71;101889.81;4904095;28;119830;-70
2022/09/02 06:00:30;;;;;;;;;;;;;;;15.56;63.06;101892.91;4913721;28;119952;-70
2022/09/02 06:02:59;;;;;;;;;;;;;;;15.66;62.87;101891.00;4910542;28;119671;-70
2022/09/02 06:05:31;;;;;;;;;;;;;;;15.77;62.94;101896.09;4909997;28;119934;-70
2022/09/02 06:08:19;;;;;;;;;;;;;;;15.87;63.05;101886.59;4902567;28;119691;-70
2022/09/02 06:10:44;;;;;;;;;;;;;;;15.98;62.99;101888.91;4895364;28;121084;-70
2022/09/02 06:13:15;;;;;;;;;;;;;;;16.09;63.09;101895.56;4907092;28;119639;-70
2022/09/02 06:15:42;;;;;;;;;;;;;;;16.20;63.22;101882.03;4908008;28;119944;-70
2022/09/02 06:18:09;;;;;;;;;;;;;;;16.32;63.23;101885.09;4904469;28;119994;-70
2022/09/02 06:20:45;;;;;;;;;;;;;;;16.43;63.43;101879.88;4902583;28;119593;-70
2022/09/02 06:23:15;;;;;;;;;;;;;;;16.54;63.44;101880.94;4921975;28;119996;-70
2022/09/02 06:25:43;;;;;;;;;;;;;;;16.68;63.78;101878.81;4907065;28;119976;-70
2022/09/02 06:28:08;;;;;;;;;;;;;;;16.84;63.81;101881.25;4907618;28;119907;-70
2022/09/02 06:30:39;;;;;;;;;;;;;;;17.00;63.88;101880.91;4910417;28;120328;-70
2022/09/02 06:33:04;;;;;;;;;;;;;;;17.16;63.46;101886.09;4907549;28;119945;-70
2022/09/02 06:35:35;;;;;;;;;;;;;;;17.32;63.21;101878.66;4907074;28;119988;-70
2022/09/02 06:38:00;;;;;;;;;;;;;;;17.47;62.59;101883.03;4904520;28;120568;-70
2022/09/02 06:40:26;;;;;;;;;;;;;;;17.65;62.29;101884.97;4906510;28;119491;-70
2022/09/02 06:42:53;;;;;;;;;;;;;;;17.79;61.88;101895.41;4924737;28;119665;-70
2022/09/02 06:45:30;;;;;;;;;;;;;;;17.95;61.17;101896.22;4909672;28;120082;-70
2022/09/02 06:47:58;;;;;;;;;;;;;;;18.08;60.45;101894.75;4909269;28;119822;-70
2022/09/02 06:50:24;;;;;;;;;;;;;;;18.20;59.78;101894.97;4909066;28;119787;-70
2022/09/02 06:52:54;;;;;;;;;;;;;;;18.30;59.73;101897.22;4886958;28;121354;-70
2022/09/02 06:55:39;;;;;;;;;;;;;;;18.42;59.10;101896.19;4892297;28;121453;-70
2022/09/02 06:58:05;;;;;;;;;;;;;;;18.54;58.98;101907.53;4903758;28;119994;-70
2022/09/02 07:00:31;;;;;;;;;;;;;;;18.63;58.75;101901.91;4909923;28;120379;-70
2022/09/02 07:05:57;;;;;;;;;;;;;;;18.79;57.73;101889.56;4913407;28;121473;-70
2022/09/02 07:08:23;;;;;;;;;;;;;;;18.85;57.38;101899.53;4911756;28;119443;-70
2022/09/02 07:10:49;;;;;;;;;;;;;;;18.90;57.37;101890.53;4912057;28;119900;-70
2022/09/02 07:13:16;;;;;;;;;;;;;;;18.96;57.26;101887.88;4917154;28;120843;-70
2022/09/02 07:15:42;;;;;;;;;;;;;;;19.01;56.75;101890.72;4904375;28;120332;-70
2022/09/02 07:18:08;;;;;;;;;;;;;;;19.06;56.03;101896.84;4909102;28;120087;-70
2022/09/02 07:20:35;;;;;;;;;;;;;;;19.12;56.39;101898.47;4906325;28;119680;-70
2022/09/02 07:23:03;;;;;;;;;;;;;;;19.20;55.73;101896.88;4893120;28;120743;-70
2022/09/02 07:25:31;;;;;;;;;;;;;;;19.26;55.78;101889.38;4924873;28;120458;-70
2022/09/02 07:27:57;;;;;;;;;;;;;;;19.32;55.43;101887.44;4910462;28;119640;-70
2022/09/02 07:30:24;;;;;;;;;;;;;;;19.36;55.06;101892.78;4919534;28;119610;-70
2022/09/02 07:33:12;;;;;;;;;;;;;;;19.39;54.61;101891.81;4907483;28;120603;-70
2022/09/02 07:35:40;;;;;;;;;;;;;;;19.41;54.78;101883.78;4926137;28;119892;-70
2022/09/02 07:38:09;;;;;;;;;;;;;;;19.50;55.35;101889.22;4893889;28;121932;-71
2022/09/02 07:40:36;;;;;;;;;;;;;;;19.58;55.07;101893.16;4906890;28;119877;-70
2022/09/02 07:43:04;;;;;;;;;;;;;;;19.66;54.75;101890.75;4898146;28;119664;-71
2022/09/02 07:45:31;;;;;;;;;;;;;;;19.72;54.50;101885.25;4893827;28;120531;-70
2022/09/02 07:48:16;;;;;;;;;;;;;;;19.78;54.40;101886.09;4907294;28;119990;-70
2022/09/02 07:50:43;;;;;;;;;;;;;;;19.70;53.76;101865.50;4925303;28;120406;-70
2022/09/02 07:53:15;;;;;;;;;;;;;;;19.92;54.18;101885.28;4908729;28;119814;-70
2022/09/02 07:55:42;;;;;;;;;;;;;;;20.01;54.53;101890.69;4908358;28;119530;-70
2022/09/02 07:58:08;;;;;;;;;;;;;;;20.12;54.09;101888.06;4913552;28;120029;-70
2022/09/02 08:00:37;;;;;;;;;;;;;;;20.27;53.87;101884.44;4909023;28;120244;-70
2022/09/02 08:03:08;;;;;;;;;;;;;;;20.44;53.69;101888.19;4908172;28;120191;-70
2022/09/02 08:05:38;;;;;;;;;;;;;;;20.62;52.89;101881.56;4904733;28;119928;-70
2022/09/02 08:08:04;;;;;;;;;;;;;;;20.79;51.76;101888.81;4924874;28;119813;-70
2022/09/02 08:10:30;;;;;;;;;;;;;;;20.96;50.60;101888.19;4924828;28;120036;-70
2022/09/02 08:12:56;;;;;;;;;;;;;;;21.13;50.04;101891.91;4908672;28;120174;-70
2022/09/02 08:15:22;;;;;;;;;;;;;;;21.31;49.77;101893.59;4909863;28;120277;-70
2022/09/02 08:17:48;;;;;;;;;;;;;;;21.48;49.03;101893.69;4925146;28;120395;-70
2022/09/02 08:20:15;;;;;;;;;;;;;;;21.64;48.45;101891.00;4911355;28;120923;-70
2022/09/02 08:22:40;;;;;;;;;;;;;;;21.80;48.02;101892.38;4909568;28;120814;-70
2022/09/02 08:25:06;;;;;;;;;;;;;;;21.95;47.42;101887.34;4907013;28;119711;-70
2022/09/02 08:27:32;;;;;;;;;;;;;;;22.11;46.80;101887.97;4908335;28;120067;-70
2022/09/02 08:30:00;;;;;;;;;;;;;;;22.24;46.58;101896.63;4910438;28;119811;-70
2022/09/02 08:32:25;;;;;;;;;;;;;;;22.38;46.32;101894.91;4909078;28;121615;-71
2022/09/02 08:34:51;;;;;;;;;;;;;;;22.50;46.12;101894.44;4908254;28;121022;-71
2022/09/02 08:37:17;;;;;;;;;;;;;;;22.64;45.42;101889.88;4907685;28;120736;-70
2022/09/02 08:39:43;;;;;;;;;;;;;;;22.78;45.26;101888.13;4909187;28;120077;-70
2022/09/02 08:42:23;;;;;;;;;;;;;;;22.88;44.05;101886.63;4913842;28;119577;-71
2022/09/02 08:44:54;;;;;;;;;;;;;;;22.95;43.22;101881.31;4905321;28;120021;-71
2022/09/02 08:47:22;;;;;;;;;;;;;;;23.01;42.92;101888.94;4909085;28;120092;-71
2022/09/02 08:49:53;;;;;;;;;;;;;;;23.09;43.62;101882.31;4892129;28;120090;-70
2022/09/02 08:52:24;;;;;;;;;;;;;;;23.19;43.97;101885.63;4923651;28;120346;-70
2022/09/02 08:54:52;;;;;;;;;;;;;;;23.28;44.12;101877.72;4906504;28;119994;-71
2022/09/02 08:57:17;;;;;;;;;;;;;;;23.38;43.70;101875.41;4908550;28;120580;-70
2022/09/02 09:00:13;;;;;;;;;;;;;;;23.40;42.07;101869.31;4908118;28;120743;-70
2022/09/02 09:02:45;;;;;;;;;;;;;;;23.36;41.57;101863.97;4920060;28;119825;-71
2022/09/02 09:05:15;;;;;;;;;;;;;;;23.37;41.95;101876.69;4911331;28;120396;-70
2022/09/02 09:08:18;;;;;;;;;;;;;;;23.46;42.07;101862.44;4848914;28;120296;-70
2022/09/02 09:10:53;;;;;;;;;;;;;;;23.53;41.61;101866.75;4849789;28;119741;-70
2022/09/02 09:13:25;;;;;;;;;;;;;;;23.56;40.24;101865.75;4844398;28;120623;-71
2022/09/02 09:15:54;;;;;;;;;;;;;;;23.55;40.76;101869.78;4837502;28;121013;-71
2022/09/02 09:18:27;;;;;;;;;;;;;;;23.61;40.97;101867.75;4869028;28;120337;-70
2022/09/02 09:20:53;;;;;;;;;;;;;;;23.68;41.21;101872.84;4932523;28;121059;-71
2022/09/02 09:23:26;;;;;;;;;;;;;;;23.75;40.41;101863.91;4916811;28;120302;-71
2022/09/02 09:25:58;;;;;;;;;;;;;;;23.83;40.91;101852.91;4921472;28;121672;-71
2022/09/02 09:28:24;;;;;;;;;;;;;;;23.92;40.33;101846.28;4925840;28;119913;-71
2022/09/02 09:30:50;;;;;;;;;;;;;;;23.97;40.21;101849.03;4920847;28;120220;-71
2022/09/02 09:33:18;;;;;;;;;;;;;;;24.01;39.87;101843.94;4917621;28;121699;-71
2022/09/02 09:35:48;;;;;;;;;;;;;;;24.03;39.00;101849.00;4918442;28;120465;-71
2022/09/02 09:38:26;;;;;;;;;;;;;;;23.96;38.46;101841.16;4919870;28;120375;-70
2022/09/02 09:41:09;;;;;;;;;;;;;;;23.93;38.55;101837.34;4917574;28;120882;-71
2022/09/02 09:43:34;;;;;;;;;;;;;;;23.90;38.54;101832.78;4912235;28;120082;-71
2022/09/02 09:46:18;;;;;;;;;;;;;;;23.85;37.93;101822.34;4917196;28;120186;-71
2022/09/02 09:48:50;;;;;;;;;;;;;;;23.83;37.77;101827.69;4910175;28;123046;-71
2022/09/02 09:51:16;;;;;;;;;;;;;;;23.75;37.52;101821.88;4920031;28;120232;-71
2022/09/02 09:53:41;;;;;;;;;;;;;;;23.68;38.12;101825.22;4917350;28;120808;-72
2022/09/02 09:56:13;;;;;;;;;;;;;;;23.65;38.19;101825.47;4916121;28;120793;-71
2022/09/02 09:58:38;;;;;;;;;;;;;;;23.63;36.87;101825.22;4947463;22;120316;-77
2022/09/02 10:01:11;;;;;;;;;;;;;;;23.61;37.98;101822.19;4928504;28;122801;-73
2022/09/02 10:04:03;;;;;;;;;;;;;;;23.64;38.20;101809.94;4935594;28;120609;-72
2022/09/02 10:06:32;;;;;;;;;;;;;;;23.68;37.86;101814.03;4935525;28;119778;-74
2022/09/02 10:09:01;;;;;;;;;;;;;;;23.74;37.78;101820.34;4919671;28;122852;-73
2022/09/02 10:11:26;;;;;;;;;;;;;;;23.77;37.56;101816.53;4935164;28;120412;-73
2022/09/02 10:14:02;;;;;;;;;;;;;;;23.79;37.95;101805.56;4938688;28;121608;-72
2022/09/02 10:16:28;;;;;;;;;;;;;;;23.80;37.28;101812.69;4918720;28;120288;-73
2022/09/02 10:19:05;;;;;;;;;;;;;;;23.78;37.27;101815.25;4932354;28;119838;-72
2022/09/02 10:21:44;;;;;;;;;;;;;;;23.80;37.17;101800.72;4928221;28;121125;-72
2022/09/02 10:24:18;;;;;;;;;;;;;;;23.82;37.56;101804.53;4929959;28;123215;-73
2022/09/02 10:26:48;;;;;;;;;;;;;;;23.82;36.95;101800.97;4920365;28;121725;-76
2022/09/02 10:29:29;;;;;;;;;;;;;;;23.77;37.36;101802.53;4920074;28;126294;-72
2022/09/02 10:32:08;;;;;;;;;;;;;;;23.78;36.89;101803.28;4942087;28;120175;-72
2022/09/02 10:34:34;;;;;;;;;;;;;;;23.70;36.77;101791.09;4923491;28;121028;-72
2022/09/02 10:37:11;;;;;;;;;;;;;;;23.80;37.12;101807.09;4926019;28;120477;-72
2022/09/02 10:40:01;;;;;;;;;;;;;;;23.83;37.14;101794.06;4928743;28;120445;-72
2022/09/02 10:42:33;;;;;;;;;;;;;;;23.72;37.03;101789.31;4939472;28;120493;-72
2022/09/02 10:44:59;;;;;;;;;;;;;;;23.82;37.08;101796.13;4931918;28;121585;-72
2022/09/02 10:47:34;;;;;;;;;;;;;;;23.85;36.68;101792.28;4927407;28;121980;-72
2022/09/02 10:50:16;;;;;;;;;;;;;;;23.89;36.88;101787.16;4931533;28;120249;-72
2022/09/02 10:52:51;;;;;;;;;;;;;;;23.93;36.97;101797.34;4921603;28;120144;-74
2022/09/02 10:55:16;;;;;;;;;;;;;;;23.95;36.96;101795.56;4937201;28;120552;-73
2022/09/02 10:57:42;;;;;;;;;;;;;;;23.95;36.97;101778.00;4893553;28;120342;-73
2022/09/02 11:00:18;;;;;;;;;;;;;;;23.96;36.96;101782.31;4907466;28;120434;-72
2022/09/02 11:02:50;;;;;;;;;;;;;;;24.01;36.89;101773.88;4922237;28;120755;-73
2022/09/02 11:05:17;;;;;;;;;;;;;;;24.05;37.03;101776.38;4940073;28;120078;-73
2022/09/02 11:07:59;;;;;;;;;;;;;;;24.06;36.39;101766.69;4925094;28;122672;-72
2022/09/02 11:10:47;;;;;;;;;;;;;;;24.02;36.70;101777.44;4942792;28;120447;-73
2022/09/02 11:13:18;;;;;;;;;;;;;;;24.03;37.01;101771.28;4935328;28;120100;-73
2022/09/02 11:15:56;;;;;;;;;;;;;;;24.07;37.29;101771.03;4942833;28;119946;-72
2022/09/02 11:18:59;;;;;;;;;;;;;;;24.10;37.19;101772.78;4888396;28;120964;-72
2022/09/02 11:21:25;;;;;;;;;;;;;;;24.05;36.32;101774.34;4905698;28;123102;-73
2022/09/02 11:24:03;;;;;;;;;;;;;;;24.05;36.15;101767.97;4898575;28;120749;-72
2022/09/02 11:26:56;;;;;;;;;;;;;;;24.05;36.38;101779.19;4882141;28;120109;-73
2022/09/02 11:29:27;;;;;;;;;;;;;;;24.08;36.75;101772.53;4885268;28;120476;-73
2022/09/02 11:32:11;;;;;;;;;;;;;;;24.09;36.44;101766.41;4899325;28;123665;-72
2022/09/02 11:34:40;;;;;;;;;;;;;;;24.10;37.28;101761.56;4867994;28;120774;-72
2022/09/02 11:37:10;;;;;;;;;;;;;;;24.10;36.44;101764.38;4882417;28;120729;-73
2022/09/02 11:40:02;;;;;;;;;;;;;;;24.07;37.14;101754.97;4854357;28;121388;-74
2022/09/02 11:42:37;;;;;;;;;;;;;;;24.05;36.53;101749.13;4885313;28;120185;-72
2022/09/02 11:45:32;;;;;;;;;;;;;;;23.94;34.44;101748.44;4905247;28;121422;-72
2022/09/02 11:48:06;;;;;;;;;;;;;;;23.82;35.28;101739.31;4879421;28;120004;-72
2022/09/02 11:50:47;;;;;;;;;;;;;;;23.76;34.54;101742.16;4899512;28;120718;-75
2022/09/02 11:53:13;;;;;;;;;;;;;;;23.77;35.57;101748.53;4928301;28;121502;-73
2022/09/02 11:55:40;;;;;;;;;;;;;;;23.84;35.88;101747.97;4926462;28;119872;-73
2022/09/02 11:58:06;;;;;;;;;;;;;;;23.87;35.04;101749.72;4929070;28;120365;-73
2022/09/02 12:00:57;;;;;;;;;;;;;;;23.88;34.96;101740.81;4928835;28;120693;-73
2022/09/02 12:03:28;;;;;;;;;;;;;;;23.86;34.02;101754.56;4923045;28;120942;-73
2022/09/02 12:06:04;;;;;;;;;;;;;;;23.79;34.24;101745.97;4932645;28;120405;-72
2022/09/02 12:08:34;;;;;;;;;;;;;;;23.78;34.87;101734.00;4906404;28;121889;-75
2022/09/02 12:11:05;;;;;;;;;;;;;;;23.81;34.86;101735.75;4946092;28;120308;-74
2022/09/02 12:13:33;;;;;;;;;;;;;;;23.86;34.96;101731.41;4928227;28;122793;-75
2022/09/02 12:16:11;;;;;;;;;;;;;;;23.89;34.85;101714.31;4929784;28;120420;-72
2022/09/02 12:18:37;;;;;;;;;;;;;;;23.91;35.04;101727.06;4941168;28;122042;-76
2022/09/02 12:21:06;;;;;;;;;;;;;;;23.93;34.75;101727.31;4936240;28;123976;-73
2022/09/02 12:23:53;;;;;;;;;;;;;;;23.93;34.79;101722.47;4907003;28;120652;-74
2022/09/02 12:26:22;;;;;;;;;;;;;;;23.95;34.51;101722.69;4922166;28;120357;-73
2022/09/02 12:28:49;;;;;;;;;;;;;;;23.98;34.70;101721.66;4941661;28;120262;-74
2022/09/02 12:31:33;;;;;;;;;;;;;;;24.02;34.68;101710.16;4934061;28;122386;-72
2022/09/02 12:34:01;;;;;;;;;;;;;;;24.03;34.96;101706.84;4903702;28;121162;-73
2022/09/02 12:36:36;;;;;;;;;;;;;;;24.03;35.38;101723.66;4943292;28;120981;-74
2022/09/02 12:39:20;;;;;;;;;;;;;;;24.00;34.44;101724.69;4891964;28;122746;-75
2022/09/02 12:41:49;;;;;;;;;;;;;;;23.98;35.00;101713.25;4936156;28;121418;-73
2022/09/02 12:44:30;;;;;;;;;;;;;;;24.02;35.46;101716.53;4939302;28;119943;-73